createdAt,value
2022-10-26T00:05:14.253Z,218.40
2022-10-26T00:15:18.243Z,213.77
2022-10-26T00:25:22.885Z,212.60
2022-10-26T00:35:41.401Z,215.43
2022-10-26T00:45:53.087Z,221.10
2022-10-26T00:55:57.866Z,216.03
2022-10-26T01:06:05.145Z,213.43
2022-10-26T01:16:27.420Z,209.90
2022-10-26T01:26:55.855Z,220.90
2022-10-26T01:37:08.841Z,215.23
2022-10-26T01:47:15.883Z,209.93
2022-10-26T01:57:22.619Z,206.87
2022-10-26T02:07:35.068Z,211.23
2022-10-26T02:17:51.961Z,217.90
2022-10-26T02:28:00.440Z,206.00
2022-10-26T02:38:09.314Z,207.13
2022-10-26T02:48:12.597Z,206.73
2022-10-26T02:58:23.866Z,231.40
2022-10-26T03:18:36.773Z,206.80
2022-10-26T03:28:39.986Z,204.00
2022-10-26T03:38:44.588Z,206.03
2022-10-26T03:48:47.798Z,199.70
2022-10-26T03:58:52.408Z,195.80
2022-10-26T04:08:58.860Z,196.60
2022-10-26T04:19:03.498Z,207.97
2022-10-26T04:29:07.690Z,209.77
2022-10-26T04:39:12.367Z,203.63
2022-10-26T04:49:15.655Z,205.13
2022-10-26T04:59:20.254Z,327.67
2022-10-26T05:09:23.469Z,203.50
2022-10-26T05:19:28.154Z,204.77
2022-10-26T05:29:31.418Z,197.90
2022-10-26T05:39:36.000Z,195.17
2022-10-26T05:49:39.411Z,199.83
2022-10-26T05:59:44.758Z,203.20
2022-10-26T06:09:49.840Z,198.97
2022-10-26T06:20:10.655Z,206.97
2022-10-26T06:30:14.342Z,203.03
2022-10-26T06:40:20.466Z,208.77
2022-10-26T06:50:38.772Z,210.80
2022-10-26T07:00:45.400Z,212.50
2022-10-26T07:10:48.962Z,207.47
2022-10-26T07:20:53.548Z,219.27
2022-10-26T07:30:59.481Z,209.83
2022-10-26T07:41:05.376Z,205.93
2022-10-26T07:51:08.851Z,201.43
2022-10-26T08:01:15.919Z,205.63
2022-10-26T08:11:19.539Z,199.07
2022-10-26T08:21:36.189Z,199.27
2022-10-26T08:31:42.969Z,201.45
2022-10-26T08:41:53.539Z,203.65
2022-10-26T08:52:00.338Z,199.95
2022-10-26T09:02:12.399Z,198.20
2022-10-26T09:12:26.759Z,188.00
2022-10-26T09:22:39.316Z,193.10
2022-10-26T09:32:47.565Z,192.85
2022-10-26T09:42:59.787Z,192.90
2022-10-26T09:53:03.193Z,185.23
2022-10-26T10:03:21.096Z,188.77
2022-10-26T10:13:27.181Z,184.05
2022-10-26T10:23:34.665Z,177.50
2022-10-26T10:33:41.333Z,179.02
2022-10-26T10:43:49.069Z,179.57
2022-10-26T10:53:55.372Z,177.05
2022-10-26T11:04:30.474Z,172.55
2022-10-26T11:14:39.378Z,177.50
2022-10-26T11:24:50.481Z,174.23
2022-10-26T11:35:00.473Z,174.90
2022-10-26T11:45:14.674Z,172.52
2022-10-26T11:55:19.829Z,173.13
2022-10-26T12:05:33.883Z,168.52
2022-10-26T12:16:03.597Z,171.75
2022-10-26T12:26:53.734Z,174.63
2022-10-26T12:37:24.513Z,169.55
2022-10-26T12:48:10.632Z,171.40
2022-10-26T12:59:10.433Z,173.93
2022-10-26T13:09:21.930Z,172.68
2022-10-26T13:19:28.462Z,177.45
2022-10-26T13:29:34.316Z,174.95
2022-10-26T13:39:40.650Z,173.20
2022-10-26T13:49:48.649Z,178.18
2022-10-26T13:59:53.382Z,201.75
2022-10-26T14:09:59.475Z,202.23
2022-10-26T14:20:04.260Z,194.00
2022-10-26T14:30:24.254Z,206.93
2022-10-26T14:40:31.814Z,208.35
2022-10-26T14:50:36.621Z,209.30
2022-10-26T15:00:40.455Z,208.25
2022-10-26T15:10:49.761Z,201.30
2022-10-26T15:20:54.047Z,205.90
2022-10-26T15:31:04.558Z,216.23
2022-10-26T15:41:17.316Z,217.43
2022-10-26T15:51:22.411Z,210.73
2022-10-26T16:01:29.436Z,208.13
2022-10-26T16:11:34.895Z,214.53
2022-10-26T16:21:38.187Z,199.80
2022-10-26T16:31:42.817Z,215.37
2022-10-26T16:41:46.034Z,198.87
2022-10-26T16:51:52.600Z,200.40
2022-10-26T17:01:55.994Z,199.97
2022-10-26T17:12:02.086Z,205.87
2022-10-26T17:22:08.038Z,211.57
2022-10-26T17:32:15.196Z,211.23
2022-10-26T17:42:18.835Z,213.67
2022-10-26T17:52:24.782Z,214.47
2022-10-26T18:02:28.392Z,216.10
2022-10-26T18:12:33.577Z,204.80
2022-10-26T18:22:36.850Z,213.63
2022-10-26T18:32:41.475Z,210.37
2022-10-26T18:42:44.723Z,207.00
2022-10-26T18:52:49.414Z,209.70
2022-10-26T19:02:52.888Z,215.40
2022-10-26T19:12:57.818Z,212.63
2022-10-26T19:23:01.112Z,212.77
2022-10-26T19:33:05.841Z,215.77
2022-10-26T19:43:09.115Z,208.17
2022-10-26T19:53:17.338Z,207.37
2022-10-26T20:03:20.942Z,212.43
2022-10-26T20:13:25.838Z,215.80
2022-10-26T20:23:29.060Z,210.90
2022-10-26T20:33:33.640Z,223.20
2022-10-26T20:43:40.049Z,222.37
2022-10-26T20:53:53.319Z,242.07
2022-10-26T21:03:59.716Z,230.13
2022-10-26T21:14:05.487Z,225.10
2022-10-26T21:24:09.360Z,215.43
2022-10-26T21:34:14.112Z,213.97
2022-10-26T21:44:39.855Z,216.10
2022-10-26T21:54:42.079Z,214.23
2022-10-26T22:04:45.345Z,216.97
2022-10-26T22:14:49.994Z,221.27
2022-10-26T22:24:53.336Z,214.03
2022-10-26T22:35:10.748Z,214.23
2022-10-26T22:45:20.898Z,214.53
2022-10-26T22:55:25.609Z,216.87
2022-10-26T23:05:28.946Z,220.30
2022-10-26T23:15:33.654Z,210.50
2022-10-26T23:25:36.970Z,227.17
2022-10-26T23:35:42.677Z,225.70
2022-10-26T23:45:45.973Z,215.13
2022-10-26T23:55:50.915Z,218.27
